createdAt,value
2022-10-20T00:01:31.578Z,21.93
2022-10-20T00:03:32.855Z,21.91
2022-10-20T00:05:34.199Z,21.86
2022-10-20T00:07:35.478Z,21.86
2022-10-20T00:09:36.966Z,21.93
2022-10-20T00:11:38.301Z,21.95
2022-10-20T00:13:39.629Z,21.92
2022-10-20T00:15:40.957Z,21.91
2022-10-20T00:17:42.219Z,21.89
2022-10-20T00:19:43.496Z,21.88
2022-10-20T00:21:44.832Z,21.89
2022-10-20T00:23:46.123Z,21.89
2022-10-20T00:25:47.423Z,21.86
2022-10-20T00:27:48.754Z,21.87
2022-10-20T00:29:50.011Z,21.87
2022-10-20T00:31:51.311Z,21.87
2022-10-20T00:33:52.634Z,21.85
2022-10-20T00:35:53.900Z,21.82
2022-10-20T00:37:55.167Z,21.82
2022-10-20T00:39:56.518Z,21.81
2022-10-20T00:41:57.843Z,21.80
2022-10-20T00:43:59.114Z,21.80
2022-10-20T00:46:00.414Z,21.83
2022-10-20T00:48:01.693Z,21.83
2022-10-20T00:50:02.986Z,21.81
2022-10-20T00:52:04.294Z,21.81
2022-10-20T00:54:05.651Z,21.83
2022-10-20T00:56:06.940Z,21.80
2022-10-20T00:58:08.204Z,21.77
2022-10-20T01:00:09.511Z,21.75
2022-10-20T01:02:10.886Z,21.76
2022-10-20T01:04:12.146Z,21.75
2022-10-20T01:06:13.523Z,21.75
2022-10-20T01:08:14.861Z,21.76
2022-10-20T01:10:16.135Z,21.75
2022-10-20T01:12:17.464Z,21.73
2022-10-20T01:14:18.753Z,21.72
2022-10-20T01:16:20.063Z,21.70
2022-10-20T01:18:21.335Z,21.68
2022-10-20T01:20:22.680Z,21.65
2022-10-20T01:22:23.964Z,21.63
2022-10-20T01:24:25.273Z,21.62
2022-10-20T01:26:26.609Z,21.59
2022-10-20T01:28:27.878Z,21.57
2022-10-20T01:30:30.595Z,21.55
2022-10-20T01:32:31.855Z,21.54
2022-10-20T01:34:33.115Z,21.53
2022-10-20T01:36:34.437Z,21.52
2022-10-20T01:38:35.701Z,21.51
2022-10-20T01:40:36.979Z,21.51
2022-10-20T01:42:38.282Z,21.48
2022-10-20T01:44:39.578Z,21.46
2022-10-20T01:46:40.853Z,21.47
2022-10-20T01:48:42.171Z,21.47
2022-10-20T01:50:43.499Z,21.45
2022-10-20T01:52:44.806Z,21.01
2022-10-20T01:54:46.067Z,21.47
2022-10-20T01:56:47.363Z,21.48
2022-10-20T01:58:48.638Z,21.49
2022-10-20T02:00:49.936Z,21.53
2022-10-20T02:02:51.274Z,21.57
2022-10-20T02:04:52.578Z,21.63
2022-10-20T02:06:53.870Z,21.68
2022-10-20T02:08:55.218Z,21.69
2022-10-20T02:10:56.591Z,21.71
2022-10-20T02:12:57.923Z,21.72
2022-10-20T02:14:59.212Z,21.74
2022-10-20T02:17:00.602Z,21.75
2022-10-20T02:19:01.989Z,21.77
2022-10-20T02:21:03.446Z,21.79
2022-10-20T02:23:04.730Z,21.81
2022-10-20T02:25:06.001Z,21.79
2022-10-20T02:27:08.223Z,21.80
2022-10-20T02:29:09.518Z,21.79
2022-10-20T02:31:10.827Z,21.80
2022-10-20T02:33:12.152Z,21.78
2022-10-20T02:35:13.480Z,21.78
2022-10-20T02:37:14.807Z,21.77
2022-10-20T02:39:16.139Z,21.77
2022-10-20T02:41:17.414Z,21.76
2022-10-20T02:43:18.691Z,21.73
2022-10-20T02:45:23.030Z,21.71
2022-10-20T02:47:24.402Z,21.66
2022-10-20T02:49:27.360Z,21.66
2022-10-20T02:51:28.634Z,21.63
2022-10-20T02:53:30.684Z,21.61
2022-10-20T02:55:32.075Z,21.57
2022-10-20T02:57:33.564Z,21.53
2022-10-20T02:59:35.018Z,21.53
2022-10-20T03:01:36.313Z,21.50
2022-10-20T03:03:37.625Z,21.47
2022-10-20T03:05:38.968Z,21.45
2022-10-20T03:07:40.318Z,21.45
2022-10-20T03:09:41.802Z,21.44
2022-10-20T03:11:43.690Z,21.41
2022-10-20T03:13:45.107Z,21.40
2022-10-20T03:15:46.427Z,21.44
2022-10-20T03:17:47.715Z,21.39
2022-10-20T03:19:48.989Z,21.36
2022-10-20T03:21:50.330Z,21.37
2022-10-20T03:23:51.656Z,21.40
2022-10-20T03:25:52.947Z,21.41
2022-10-20T03:27:54.229Z,21.44
2022-10-20T03:29:55.577Z,21.48
2022-10-20T03:31:56.863Z,21.51
2022-10-20T03:33:58.175Z,21.60
2022-10-20T03:35:59.448Z,21.68
2022-10-20T03:38:00.731Z,21.75
2022-10-20T03:40:02.047Z,21.78
2022-10-20T03:42:03.351Z,21.80
2022-10-20T03:44:04.639Z,21.89
2022-10-20T03:46:05.960Z,21.89
2022-10-20T03:48:07.244Z,21.90
2022-10-20T03:50:08.511Z,21.91
2022-10-20T03:52:09.840Z,21.94
2022-10-20T03:54:11.135Z,21.94
2022-10-20T03:56:12.395Z,21.94
2022-10-20T03:58:13.719Z,21.91
2022-10-20T04:00:15.019Z,20.95
2022-10-20T04:02:16.337Z,21.88
2022-10-20T04:04:17.714Z,21.85
2022-10-20T04:06:19.015Z,21.82
2022-10-20T04:08:20.348Z,21.76
2022-10-20T04:10:21.615Z,20.93
2022-10-20T04:12:22.895Z,21.71
2022-10-20T04:14:24.226Z,21.69
2022-10-20T04:16:25.517Z,21.66
2022-10-20T04:18:26.785Z,21.62
2022-10-20T04:20:28.103Z,21.59
2022-10-20T04:22:29.402Z,21.55
2022-10-20T04:24:30.654Z,21.51
2022-10-20T04:26:31.991Z,21.47
2022-10-20T04:28:33.279Z,21.44
2022-10-20T04:30:34.563Z,21.43
2022-10-20T04:32:35.878Z,21.41
2022-10-20T04:34:37.149Z,21.37
2022-10-20T04:36:38.436Z,21.38
2022-10-20T04:38:39.756Z,21.38
2022-10-20T04:40:41.075Z,21.38
2022-10-20T04:42:42.382Z,21.36
2022-10-20T04:44:43.699Z,21.35
2022-10-20T04:46:44.974Z,21.33
2022-10-20T04:48:46.271Z,21.32
2022-10-20T04:50:47.610Z,21.31
2022-10-20T04:52:48.994Z,21.30
2022-10-20T04:54:50.276Z,21.03
2022-10-20T04:56:51.794Z,21.37
2022-10-20T04:58:53.068Z,21.40
2022-10-20T05:00:54.342Z,21.44
2022-10-20T05:02:56.872Z,21.49
2022-10-20T05:04:58.247Z,21.53
2022-10-20T05:06:59.553Z,21.62
2022-10-20T05:09:00.873Z,21.65
2022-10-20T05:11:02.279Z,21.70
2022-10-20T05:13:03.574Z,21.74
2022-10-20T05:15:04.850Z,21.77
2022-10-20T05:17:09.227Z,21.79
2022-10-20T05:19:11.403Z,21.84
2022-10-20T05:21:12.663Z,21.89
2022-10-20T05:23:13.922Z,21.92
2022-10-20T05:27:36.538Z,21.95
2022-10-20T05:29:37.814Z,21.91
2022-10-20T05:31:39.265Z,21.89
2022-10-20T05:33:40.591Z,21.88
2022-10-20T05:35:41.898Z,21.86
2022-10-20T05:37:43.838Z,21.82
2022-10-20T05:39:45.850Z,21.79
2022-10-20T05:41:47.173Z,21.74
2022-10-20T05:43:48.807Z,21.71
2022-10-20T05:45:50.119Z,21.72
2022-10-20T05:47:51.386Z,21.03
2022-10-20T05:49:53.075Z,21.68
2022-10-20T05:51:54.376Z,21.65
2022-10-20T05:53:55.665Z,21.62
2022-10-20T05:55:56.979Z,21.58
2022-10-20T05:57:58.234Z,21.54
2022-10-20T05:59:59.564Z,21.51
2022-10-20T06:02:00.859Z,21.51
2022-10-20T06:04:02.143Z,21.48
2022-10-20T06:06:03.471Z,21.45
2022-10-20T06:08:04.775Z,21.45
2022-10-20T06:10:06.113Z,21.43
2022-10-20T06:14:09.627Z,21.38
2022-10-20T06:16:10.899Z,21.35
2022-10-20T06:18:12.235Z,21.34
2022-10-20T06:20:13.534Z,21.32
2022-10-20T06:22:15.019Z,21.32
2022-10-20T06:24:17.010Z,21.32
2022-10-20T06:26:18.515Z,21.33
2022-10-20T06:28:19.818Z,21.34
2022-10-20T06:30:21.267Z,21.39
2022-10-20T06:32:22.545Z,21.41
2022-10-20T06:34:23.905Z,21.43
2022-10-20T06:36:25.249Z,21.46
2022-10-20T06:38:26.554Z,21.49
2022-10-20T06:40:27.875Z,21.55
2022-10-20T06:42:29.156Z,21.62
2022-10-20T06:44:30.447Z,21.68
2022-10-20T06:46:31.782Z,21.68
2022-10-20T06:48:33.086Z,21.69
2022-10-20T06:50:34.419Z,21.72
2022-10-20T06:52:35.937Z,21.73
2022-10-20T06:54:37.375Z,21.75
2022-10-20T06:56:38.694Z,21.78
2022-10-20T06:58:40.002Z,21.83
2022-10-20T07:00:41.339Z,21.83
2022-10-20T07:02:42.639Z,21.83
2022-10-20T07:04:43.962Z,21.93
2022-10-20T07:06:45.271Z,20.64
2022-10-20T07:08:46.575Z,19.43
2022-10-20T07:10:47.938Z,18.96
2022-10-20T07:12:49.201Z,18.70
2022-10-20T07:14:50.519Z,18.21
2022-10-20T07:16:51.938Z,18.50
2022-10-20T07:18:53.294Z,19.57
2022-10-20T07:20:54.606Z,20.28
2022-10-20T07:22:57.183Z,20.72
2022-10-20T07:24:59.511Z,21.00
2022-10-20T07:27:00.810Z,21.18
2022-10-20T07:29:03.009Z,21.35
2022-10-20T07:31:04.395Z,21.49
2022-10-20T07:33:05.688Z,21.61
2022-10-20T07:35:07.118Z,21.71
2022-10-20T07:37:08.387Z,21.87
2022-10-20T07:39:09.715Z,21.89
2022-10-20T07:41:11.047Z,21.95
2022-10-20T07:43:12.326Z,22.00
2022-10-20T07:45:13.644Z,22.11
2022-10-20T07:47:14.961Z,22.21
2022-10-20T07:49:42.760Z,22.30
2022-10-20T07:51:37.544Z,22.41
2022-10-20T07:53:38.828Z,22.40
2022-10-20T07:55:40.125Z,22.25
2022-10-20T07:57:41.427Z,22.12
2022-10-20T07:59:42.723Z,22.03
2022-10-20T08:01:44.467Z,22.01
2022-10-20T08:03:46.069Z,22.05
2022-10-20T08:05:47.335Z,22.12
2022-10-20T08:07:48.674Z,22.16
2022-10-20T08:09:49.949Z,22.17
2022-10-20T08:11:54.563Z,22.17
2022-10-20T08:13:57.256Z,22.14
2022-10-20T08:15:58.589Z,22.09
2022-10-20T08:17:59.939Z,22.05
2022-10-20T08:20:05.097Z,22.02
2022-10-20T08:22:06.427Z,21.98
2022-10-20T08:24:07.723Z,21.94
2022-10-20T08:26:11.371Z,21.92
2022-10-20T08:28:12.954Z,21.89
2022-10-20T08:30:29.439Z,21.85
2022-10-20T08:32:30.799Z,21.84
2022-10-20T08:34:32.123Z,21.81
2022-10-20T08:36:33.416Z,21.80
2022-10-20T08:38:34.692Z,21.79
2022-10-20T08:40:35.977Z,21.79
2022-10-20T08:42:37.328Z,21.78
2022-10-20T08:44:38.597Z,21.78
2022-10-20T08:46:39.879Z,21.80
2022-10-20T08:48:41.162Z,21.80
2022-10-20T08:50:42.501Z,21.80
2022-10-20T08:52:43.774Z,21.83
2022-10-20T08:54:45.055Z,21.81
2022-10-20T08:56:46.494Z,21.84
2022-10-20T08:58:47.856Z,21.82
2022-10-20T09:00:49.135Z,21.82
2022-10-20T09:02:50.395Z,21.81
2022-10-20T09:04:51.674Z,22.44
2022-10-20T09:06:52.994Z,22.92
2022-10-20T09:08:54.377Z,23.14
2022-10-20T09:10:56.342Z,23.30
2022-10-20T09:13:00.486Z,23.34
2022-10-20T09:15:01.861Z,23.45
2022-10-20T09:17:03.129Z,23.48
2022-10-20T09:19:04.414Z,23.46
2022-10-20T09:21:05.691Z,23.54
2022-10-20T09:23:16.534Z,23.00
2022-10-20T09:25:24.076Z,23.53
2022-10-20T09:27:25.714Z,23.69
2022-10-20T09:29:27.071Z,23.65
2022-10-20T09:31:28.531Z,23.76
2022-10-20T09:33:29.886Z,23.69
2022-10-20T09:35:31.190Z,23.87
2022-10-20T09:37:32.495Z,23.86
2022-10-20T09:39:33.775Z,23.91
2022-10-20T09:41:36.044Z,23.90
2022-10-20T09:43:37.318Z,24.04
2022-10-20T09:45:38.986Z,23.59
2022-10-20T09:47:40.267Z,23.68
2022-10-20T09:49:41.582Z,23.76
2022-10-20T09:51:42.890Z,23.87
2022-10-20T09:53:44.244Z,23.94
2022-10-20T09:55:45.555Z,24.06
2022-10-20T09:57:46.865Z,23.95
2022-10-20T09:59:48.266Z,24.13
2022-10-20T10:01:49.543Z,23.90
2022-10-20T10:03:51.791Z,23.46
2022-10-20T10:05:53.122Z,23.74
2022-10-20T10:07:54.410Z,23.95
2022-10-20T10:09:55.717Z,24.03
2022-10-20T10:11:56.987Z,24.02
2022-10-20T10:13:58.253Z,24.10
2022-10-20T10:15:59.590Z,24.56
2022-10-20T10:18:00.930Z,24.54
2022-10-20T10:20:02.190Z,24.70
2022-10-20T10:22:03.533Z,24.15
2022-10-20T10:24:04.844Z,23.93
2022-10-20T10:26:06.181Z,23.83
2022-10-20T10:28:09.009Z,23.84
2022-10-20T10:30:10.294Z,23.88
2022-10-20T10:32:11.566Z,23.90
2022-10-20T10:34:12.859Z,23.93
2022-10-20T10:36:14.203Z,23.99
2022-10-20T10:38:15.521Z,23.99
2022-10-20T10:40:16.839Z,23.99
2022-10-20T10:42:18.118Z,24.04
2022-10-20T10:44:19.398Z,24.06
2022-10-20T10:46:20.716Z,24.09
2022-10-20T10:48:24.815Z,24.13
2022-10-20T10:50:26.254Z,24.10
2022-10-20T10:52:27.523Z,24.08
2022-10-20T10:54:28.797Z,24.07
2022-10-20T10:56:30.271Z,24.09
2022-10-20T10:58:31.551Z,23.76
2022-10-20T11:00:32.864Z,23.63
2022-10-20T11:02:34.414Z,24.03
2022-10-20T11:04:35.928Z,24.24
2022-10-20T11:06:37.211Z,23.68
2022-10-20T11:08:38.499Z,23.37
2022-10-20T11:10:40.697Z,23.22
2022-10-20T11:12:42.039Z,23.14
2022-10-20T11:14:43.303Z,23.09
2022-10-20T11:16:44.586Z,23.06
2022-10-20T11:18:45.870Z,23.04
2022-10-20T11:20:47.165Z,23.03
2022-10-20T11:22:48.469Z,23.01
2022-10-20T11:24:50.083Z,23.02
2022-10-20T11:26:53.444Z,23.00
2022-10-20T11:28:54.882Z,22.98
2022-10-20T11:30:56.166Z,22.97
2022-10-20T11:33:00.251Z,22.95
2022-10-20T11:35:01.637Z,22.92
2022-10-20T11:37:02.905Z,22.93
2022-10-20T11:39:06.642Z,22.93
2022-10-20T11:41:07.966Z,22.92
2022-10-20T11:43:11.070Z,22.93
2022-10-20T11:45:12.582Z,22.97
2022-10-20T11:47:13.887Z,22.98
2022-10-20T11:49:15.161Z,22.99
2022-10-20T11:51:16.449Z,23.01
2022-10-20T11:53:17.740Z,23.02
2022-10-20T11:55:19.083Z,23.04
2022-10-20T11:57:20.351Z,23.04
2022-10-20T11:59:21.637Z,23.03
2022-10-20T12:01:22.956Z,23.06
2022-10-20T12:03:24.448Z,23.07
2022-10-20T12:05:25.786Z,23.08
2022-10-20T12:07:27.085Z,23.09
2022-10-20T12:11:34.623Z,23.12
2022-10-20T12:13:35.902Z,23.16
2022-10-20T12:15:37.198Z,23.20
2022-10-20T12:17:38.854Z,23.24
2022-10-20T12:19:40.178Z,23.24
2022-10-20T12:21:41.472Z,23.28
2022-10-20T12:23:42.751Z,23.29
2022-10-20T12:25:44.246Z,23.30
2022-10-20T12:27:45.526Z,23.29
2022-10-20T12:29:46.822Z,23.29
2022-10-20T12:31:48.147Z,23.26
2022-10-20T12:33:49.613Z,23.20
2022-10-20T12:35:50.907Z,23.15
2022-10-20T12:37:52.231Z,23.12
2022-10-20T12:39:53.548Z,23.08
2022-10-20T12:41:55.329Z,23.05
2022-10-20T12:43:56.655Z,23.06
2022-10-20T12:45:58.006Z,23.07
2022-10-20T12:47:59.278Z,23.07
2022-10-20T12:50:00.698Z,23.08
2022-10-20T12:52:02.005Z,23.09
2022-10-20T12:54:03.458Z,23.09
2022-10-20T12:56:04.746Z,23.76
2022-10-20T12:58:06.039Z,24.25
2022-10-20T13:00:07.800Z,24.28
2022-10-20T13:02:09.141Z,24.43
2022-10-20T13:04:10.424Z,24.47
2022-10-20T13:06:11.699Z,24.33
2022-10-20T13:08:13.053Z,24.66
2022-10-20T13:10:14.333Z,24.69
2022-10-20T13:12:18.498Z,24.69
2022-10-20T13:14:19.799Z,24.62
2022-10-20T13:16:21.199Z,24.61
2022-10-20T13:18:22.866Z,24.53
2022-10-20T13:20:24.376Z,24.62
2022-10-20T13:22:25.658Z,24.94
2022-10-20T13:24:27.345Z,24.69
2022-10-20T13:26:28.635Z,24.45
2022-10-20T13:28:29.966Z,24.40
2022-10-20T13:30:31.247Z,24.40
2022-10-20T13:32:32.538Z,24.42
2022-10-20T13:34:33.963Z,24.38
2022-10-20T13:36:35.274Z,24.13
2022-10-20T13:38:36.555Z,23.95
2022-10-20T13:40:37.850Z,23.36
2022-10-20T13:42:39.367Z,22.30
2022-10-20T13:44:40.895Z,21.61
2022-10-20T13:46:42.171Z,21.99
2022-10-20T13:48:43.446Z,22.21
2022-10-20T13:50:44.775Z,22.29
2022-10-20T13:52:46.043Z,22.33
2022-10-20T13:54:47.462Z,22.32
2022-10-20T13:56:48.738Z,22.30
2022-10-20T13:58:50.010Z,22.28
2022-10-20T14:00:51.398Z,22.19
2022-10-20T14:02:52.680Z,22.18
2022-10-20T14:04:53.964Z,22.17
2022-10-20T14:06:55.287Z,22.14
2022-10-20T14:08:58.083Z,22.11
2022-10-20T14:10:59.466Z,22.10
2022-10-20T14:13:00.791Z,22.10
2022-10-20T14:15:02.471Z,22.09
2022-10-20T14:17:03.848Z,22.07
2022-10-20T14:19:05.297Z,22.06
2022-10-20T14:21:08.394Z,22.02
2022-10-20T14:23:09.866Z,22.01
2022-10-20T14:25:11.201Z,21.99
2022-10-20T14:27:12.491Z,21.95
2022-10-20T14:29:14.125Z,21.93
2022-10-20T14:31:15.406Z,21.90
2022-10-20T14:33:16.751Z,21.86
2022-10-20T14:35:18.940Z,21.84
2022-10-20T14:37:20.341Z,21.81
2022-10-20T14:39:21.608Z,21.76
2022-10-20T14:41:26.175Z,21.74
2022-10-20T14:43:27.493Z,21.80
2022-10-20T14:45:28.922Z,21.76
2022-10-20T14:47:30.279Z,21.77
2022-10-20T14:49:31.562Z,21.80
2022-10-20T14:51:32.904Z,21.84
2022-10-20T14:53:34.255Z,21.90
2022-10-20T14:55:36.967Z,21.97
2022-10-20T14:57:38.736Z,22.02
2022-10-20T14:59:40.310Z,22.04
2022-10-20T15:01:53.920Z,22.02
2022-10-20T15:03:57.408Z,21.96
2022-10-20T15:05:58.795Z,21.94
2022-10-20T15:08:04.724Z,21.90
2022-10-20T15:10:08.142Z,21.90
2022-10-20T15:12:09.427Z,21.90
2022-10-20T15:14:10.710Z,21.90
2022-10-20T15:16:12.046Z,21.86
2022-10-20T15:18:13.371Z,21.73
2022-10-20T15:20:14.660Z,21.62
2022-10-20T15:22:15.940Z,21.51
2022-10-20T15:24:17.331Z,21.44
2022-10-20T15:26:18.604Z,21.39
2022-10-20T15:28:19.897Z,21.36
2022-10-20T15:30:21.190Z,21.37
2022-10-20T15:32:22.482Z,21.37
2022-10-20T15:34:23.828Z,21.34
2022-10-20T15:36:28.782Z,21.36
2022-10-20T15:38:32.787Z,21.38
2022-10-20T15:40:34.068Z,21.38
2022-10-20T15:42:35.622Z,21.38
2022-10-20T15:44:37.122Z,21.38
2022-10-20T15:46:38.395Z,21.37
2022-10-20T15:48:39.737Z,21.38
2022-10-20T15:50:41.034Z,21.38
2022-10-20T15:52:42.376Z,21.41
2022-10-20T15:54:49.697Z,21.44
2022-10-20T15:56:51.124Z,20.80
2022-10-20T15:58:52.439Z,20.26
2022-10-20T16:00:53.912Z,20.18
2022-10-20T16:02:55.313Z,20.01
2022-10-20T16:04:56.655Z,20.68
2022-10-20T16:07:02.587Z,21.69
2022-10-20T16:09:05.120Z,22.26
2022-10-20T16:11:06.548Z,22.52
2022-10-20T16:13:07.836Z,22.73
2022-10-20T16:15:09.155Z,22.81
2022-10-20T16:17:10.439Z,22.94
2022-10-20T16:19:11.748Z,22.67
2022-10-20T16:21:13.080Z,22.57
2022-10-20T16:23:14.377Z,22.85
2022-10-20T16:25:15.654Z,22.86
2022-10-20T16:27:16.976Z,22.83
2022-10-20T16:29:18.270Z,22.93
2022-10-20T16:31:19.589Z,22.87
2022-10-20T16:33:20.865Z,23.25
2022-10-20T16:35:25.040Z,23.31
2022-10-20T16:37:27.038Z,23.18
2022-10-20T16:39:28.312Z,23.10
2022-10-20T16:41:29.600Z,23.16
2022-10-20T16:43:30.969Z,23.22
2022-10-20T16:45:32.254Z,23.20
2022-10-20T16:47:33.531Z,22.79
2022-10-20T16:49:34.842Z,22.57
2022-10-20T16:51:36.283Z,22.61
2022-10-20T16:53:37.622Z,22.83
2022-10-20T16:55:38.898Z,23.11
2022-10-20T16:57:40.477Z,23.22
2022-10-20T16:59:42.942Z,23.21
2022-10-20T17:01:44.918Z,23.22
2022-10-20T17:03:46.208Z,23.20
2022-10-20T17:05:47.511Z,23.36
2022-10-20T17:07:52.232Z,22.56
2022-10-20T17:09:53.566Z,23.26
2022-10-20T17:11:54.882Z,23.25
2022-10-20T17:13:56.177Z,23.19
2022-10-20T17:15:57.446Z,23.20
2022-10-20T17:17:58.729Z,23.22
2022-10-20T17:20:00.007Z,23.25
2022-10-20T17:22:01.378Z,23.28
2022-10-20T17:24:02.755Z,23.23
2022-10-20T17:26:04.081Z,22.50
2022-10-20T17:28:05.378Z,23.34
2022-10-20T17:30:06.751Z,23.15
2022-10-20T17:32:08.081Z,22.89
2022-10-20T17:34:09.362Z,23.02
2022-10-20T17:36:12.306Z,23.22
2022-10-20T17:38:13.587Z,23.29
2022-10-20T17:40:14.964Z,23.27
2022-10-20T17:42:16.285Z,23.23
2022-10-20T17:44:17.586Z,23.16
2022-10-20T17:46:19.599Z,23.19
2022-10-20T17:48:20.876Z,23.14
2022-10-20T17:50:22.167Z,23.01
2022-10-20T17:52:23.436Z,22.66
2022-10-20T17:54:24.770Z,22.79
2022-10-20T17:56:29.595Z,22.59
2022-10-20T17:58:30.953Z,22.75
2022-10-20T18:00:51.562Z,22.85
2022-10-20T18:02:56.316Z,22.94
2022-10-20T18:04:57.625Z,22.80
2022-10-20T18:06:58.894Z,22.77
2022-10-20T18:09:00.251Z,22.80
2022-10-20T18:11:01.596Z,22.89
2022-10-20T18:13:02.906Z,22.90
2022-10-20T18:15:04.184Z,22.92
2022-10-20T18:17:05.515Z,23.01
2022-10-20T18:19:06.795Z,22.98
2022-10-20T18:21:10.882Z,22.84
2022-10-20T18:23:12.162Z,22.80
2022-10-20T18:25:13.439Z,22.91
2022-10-20T18:27:14.731Z,22.98
2022-10-20T18:29:16.051Z,22.95
2022-10-20T18:31:18.106Z,22.94
2022-10-20T18:33:19.423Z,22.90
2022-10-20T18:35:23.099Z,22.84
2022-10-20T18:37:24.603Z,22.96
2022-10-20T18:39:25.922Z,22.90
2022-10-20T18:41:27.226Z,23.00
2022-10-20T18:43:28.502Z,23.11
2022-10-20T18:45:32.736Z,22.99
2022-10-20T18:47:34.281Z,22.95
2022-10-20T18:49:35.731Z,23.00
2022-10-20T18:51:37.224Z,23.05
2022-10-20T18:53:38.494Z,23.02
2022-10-20T18:55:39.770Z,22.96
2022-10-20T18:57:41.352Z,22.62
2022-10-20T18:59:42.675Z,22.82
2022-10-20T19:01:44.010Z,22.99
2022-10-20T19:03:45.275Z,22.99
2022-10-20T19:05:46.575Z,23.01
2022-10-20T19:07:50.759Z,22.62
2022-10-20T19:09:54.817Z,22.34
2022-10-20T19:11:56.947Z,22.20
2022-10-20T19:13:58.261Z,22.10
2022-10-20T19:15:59.539Z,22.03
2022-10-20T19:18:01.752Z,21.98
2022-10-20T19:20:03.227Z,21.94
2022-10-20T19:22:05.062Z,21.90
2022-10-20T19:24:06.385Z,21.85
2022-10-20T19:26:10.683Z,21.81
2022-10-20T19:28:12.694Z,22.22
2022-10-20T19:30:14.012Z,22.37
2022-10-20T19:32:15.422Z,22.49
2022-10-20T19:34:16.711Z,22.49
2022-10-20T19:36:17.985Z,22.50
2022-10-20T19:38:19.287Z,22.72
2022-10-20T19:40:20.603Z,22.79
2022-10-20T19:42:22.794Z,22.88
2022-10-20T19:44:24.111Z,22.83
2022-10-20T19:46:25.407Z,22.47
2022-10-20T19:48:26.737Z,22.26
2022-10-20T19:50:28.078Z,22.45
2022-10-20T19:54:30.715Z,21.85
2022-10-20T19:56:34.993Z,22.68
2022-10-20T19:58:36.291Z,22.76
2022-10-20T20:00:37.690Z,22.78
2022-10-20T20:02:39.418Z,22.75
2022-10-20T20:04:41.074Z,22.89
2022-10-20T20:06:42.391Z,22.91
2022-10-20T20:08:44.651Z,22.92
2022-10-20T20:10:45.969Z,22.89
2022-10-20T20:12:47.743Z,22.94
2022-10-20T20:14:49.011Z,22.93
2022-10-20T20:16:50.345Z,22.99
2022-10-20T20:18:51.666Z,23.02
2022-10-20T20:20:52.942Z,23.00
2022-10-20T20:22:54.273Z,23.11
2022-10-20T20:24:55.577Z,23.16
2022-10-20T20:26:56.952Z,23.30
2022-10-20T20:28:58.287Z,23.37
2022-10-20T20:31:00.038Z,23.26
2022-10-20T20:33:01.334Z,23.33
2022-10-20T20:37:03.890Z,22.77
2022-10-20T20:39:07.123Z,22.46
2022-10-20T20:41:08.449Z,22.47
2022-10-20T20:43:09.719Z,22.69
2022-10-20T20:45:11.059Z,22.76
2022-10-20T20:47:12.330Z,22.87
2022-10-20T20:49:14.136Z,23.11
2022-10-20T20:51:15.441Z,23.18
2022-10-20T20:53:16.710Z,23.21
2022-10-20T20:55:17.998Z,23.39
2022-10-20T20:57:19.322Z,23.23
2022-10-20T20:59:20.602Z,23.23
2022-10-20T21:01:21.972Z,23.27
2022-10-20T21:03:23.324Z,23.23
2022-10-20T21:05:24.655Z,23.21
2022-10-20T21:07:25.947Z,23.14
2022-10-20T21:09:27.254Z,23.18
2022-10-20T21:11:28.545Z,23.21
2022-10-20T21:13:29.804Z,23.13
2022-10-20T21:15:31.140Z,23.09
2022-10-20T21:17:32.442Z,23.06
2022-10-20T21:19:33.730Z,23.09
2022-10-20T21:21:35.008Z,23.14
2022-10-20T21:23:36.347Z,23.22
2022-10-20T21:25:37.737Z,22.65
2022-10-20T21:27:39.006Z,22.35
2022-10-20T21:29:44.214Z,22.55
2022-10-20T21:31:47.602Z,22.57
2022-10-20T21:33:48.879Z,22.63
2022-10-20T21:35:50.144Z,22.82
2022-10-20T21:37:51.504Z,23.04
2022-10-20T21:39:52.758Z,23.22
2022-10-20T21:41:54.087Z,23.07
2022-10-20T21:43:55.379Z,23.02
2022-10-20T21:45:56.694Z,23.08
2022-10-20T21:47:57.995Z,23.05
2022-10-20T21:49:59.261Z,22.91
2022-10-20T21:52:00.570Z,23.26
2022-10-20T21:54:01.846Z,23.29
2022-10-20T21:56:03.222Z,23.44
2022-10-20T21:58:04.553Z,23.38
2022-10-20T22:00:05.819Z,23.49
2022-10-20T22:02:13.367Z,23.19
2022-10-20T22:04:14.674Z,23.04
2022-10-20T22:06:16.015Z,22.58
2022-10-20T22:08:17.349Z,22.94
2022-10-20T22:10:18.654Z,22.98
2022-10-20T22:12:19.956Z,22.98
2022-10-20T22:14:21.232Z,23.01
2022-10-20T22:16:22.537Z,23.01
2022-10-20T22:18:23.971Z,23.02
2022-10-20T22:20:25.243Z,23.00
2022-10-20T22:22:27.706Z,22.98
2022-10-20T22:24:30.610Z,22.99
2022-10-20T22:26:31.899Z,23.01
2022-10-20T22:28:33.218Z,22.68
2022-10-20T22:30:34.489Z,22.43
2022-10-20T22:32:35.988Z,22.30
2022-10-20T22:34:37.581Z,22.25
2022-10-20T22:36:39.707Z,22.44
2022-10-20T22:38:41.059Z,22.60
2022-10-20T22:40:42.359Z,22.69
2022-10-20T22:42:43.631Z,22.73
2022-10-20T22:44:45.023Z,22.80
2022-10-20T22:46:46.305Z,22.94
2022-10-20T22:48:47.659Z,22.82
2022-10-20T22:50:48.987Z,22.79
2022-10-20T22:52:50.915Z,22.78
2022-10-20T22:54:52.180Z,22.77
2022-10-20T22:56:53.467Z,22.75
2022-10-20T22:58:54.790Z,22.77
2022-10-20T23:00:56.111Z,22.82
2022-10-20T23:02:57.446Z,22.87
2022-10-20T23:04:58.715Z,22.85
2022-10-20T23:09:06.403Z,22.81
2022-10-20T23:11:07.754Z,22.82
2022-10-20T23:13:09.020Z,22.95
2022-10-20T23:15:10.303Z,23.01
2022-10-20T23:17:11.617Z,22.97
2022-10-20T23:19:12.909Z,22.91
2022-10-20T23:21:14.249Z,22.80
2022-10-20T23:23:15.738Z,22.55
2022-10-20T23:25:17.065Z,22.39
2022-10-20T23:27:18.332Z,22.50
2022-10-20T23:29:19.615Z,22.87
2022-10-20T23:31:20.911Z,22.97
2022-10-20T23:33:22.230Z,23.18
2022-10-20T23:35:23.503Z,23.50
2022-10-20T23:37:24.770Z,23.45
2022-10-20T23:39:26.061Z,23.08
2022-10-20T23:41:27.339Z,23.05
2022-10-20T23:43:28.690Z,23.27
2022-10-20T23:45:34.073Z,23.21
2022-10-20T23:47:38.501Z,23.00
2022-10-20T23:49:40.012Z,23.12
2022-10-20T23:51:41.295Z,22.98
2022-10-20T23:53:42.550Z,23.41
2022-10-20T23:55:43.939Z,23.23
2022-10-20T23:57:45.281Z,23.27
2022-10-20T23:59:46.550Z,23.13
